createdAt,value
2023-02-16T00:01:01.672Z,20.43
2023-02-16T00:03:28.726Z,20.30
2023-02-16T00:05:55.394Z,19.67
2023-02-16T00:08:22.187Z,20.27
2023-02-16T00:11:07.448Z,21.33
2023-02-16T00:13:48.023Z,22.23
2023-02-16T00:16:22.799Z,20.55
2023-02-16T00:18:50.461Z,16.03
2023-02-16T00:21:18.711Z,17.40
2023-02-16T00:23:45.419Z,17.13
2023-02-16T00:26:21.694Z,20.20
2023-02-16T00:28:54.386Z,19.00
2023-02-16T00:31:23.724Z,17.30
2023-02-16T00:33:50.647Z,12.07
2023-02-16T00:36:17.231Z,18.23
2023-02-16T00:38:43.961Z,19.63
2023-02-16T00:41:38.885Z,14.93
2023-02-16T00:44:44.888Z,14.50
2023-02-16T00:47:22.390Z,18.57
2023-02-16T00:49:51.342Z,20.30
2023-02-16T00:52:34.000Z,19.27
2023-02-16T00:55:02.658Z,17.17
2023-02-16T00:57:34.597Z,14.13
2023-02-16T01:00:14.852Z,20.13
2023-02-16T01:02:46.505Z,16.55
2023-02-16T01:05:13.846Z,18.43
2023-02-16T01:07:59.515Z,24.50
2023-02-16T01:10:46.536Z,19.30
2023-02-16T01:13:14.011Z,17.83
2023-02-16T01:15:41.212Z,16.20
2023-02-16T01:18:08.428Z,21.67
2023-02-16T01:20:37.933Z,16.27
2023-02-16T01:23:04.832Z,18.33
2023-02-16T01:25:31.556Z,22.60
2023-02-16T01:27:58.253Z,12.90
2023-02-16T01:30:25.929Z,18.37
2023-02-16T01:32:53.339Z,26.50
2023-02-16T01:35:27.959Z,20.57
2023-02-16T01:37:54.582Z,20.37
2023-02-16T01:40:41.411Z,18.50
2023-02-16T01:43:30.372Z,19.60
2023-02-16T01:46:29.005Z,16.73
2023-02-16T01:48:55.627Z,20.13
2023-02-16T01:51:27.486Z,23.63
2023-02-16T01:54:16.782Z,20.43
2023-02-16T01:56:53.792Z,19.03
2023-02-16T02:00:03.728Z,21.40
2023-02-16T02:02:40.934Z,20.13
2023-02-16T02:05:26.436Z,16.03
2023-02-16T02:08:01.432Z,19.43
2023-02-16T02:10:34.067Z,18.50
2023-02-16T02:13:31.780Z,18.93
2023-02-16T02:15:59.865Z,21.50
2023-02-16T02:18:26.504Z,19.60
2023-02-16T02:21:23.175Z,23.20
2023-02-16T02:24:16.678Z,18.00
2023-02-16T02:27:14.419Z,14.00
2023-02-16T02:29:46.783Z,15.63
2023-02-16T02:32:13.443Z,17.77
2023-02-16T02:34:59.610Z,21.43
2023-02-16T02:37:48.278Z,15.30
2023-02-16T02:40:36.356Z,21.73
2023-02-16T02:43:22.234Z,20.23
2023-02-16T02:45:59.715Z,17.23
2023-02-16T02:48:34.133Z,18.27
2023-02-16T02:51:28.723Z,16.50
2023-02-16T02:54:28.553Z,16.23
2023-02-16T02:57:19.408Z,21.73
2023-02-16T03:00:14.418Z,23.33
2023-02-16T03:02:42.815Z,20.10
2023-02-16T03:05:13.700Z,17.90
2023-02-16T03:07:47.629Z,17.02
2023-02-16T03:10:34.383Z,17.43
2023-02-16T03:13:03.428Z,21.57
2023-02-16T03:15:32.032Z,21.63
2023-02-16T03:18:19.368Z,21.37
2023-02-16T03:21:05.139Z,16.57
2023-02-16T03:23:52.230Z,18.40
2023-02-16T03:26:38.458Z,17.97
2023-02-16T03:29:19.360Z,20.60
2023-02-16T03:31:47.825Z,16.25
2023-02-16T03:34:16.168Z,21.90
2023-02-16T03:36:45.068Z,18.30
2023-02-16T03:39:12.568Z,17.27
2023-02-16T03:41:51.279Z,23.77
2023-02-16T03:44:18.771Z,20.10
2023-02-16T03:46:45.839Z,19.03
2023-02-16T03:49:12.473Z,20.90
2023-02-16T03:51:39.089Z,20.13
2023-02-16T03:54:05.700Z,17.97
2023-02-16T03:56:32.273Z,20.53
2023-02-16T03:58:58.987Z,18.63
2023-02-16T04:01:26.215Z,19.27
2023-02-16T04:03:52.994Z,17.77
2023-02-16T04:06:19.587Z,16.60
2023-02-16T04:08:46.625Z,16.00
2023-02-16T04:11:31.850Z,18.47
2023-02-16T04:13:58.419Z,16.37
2023-02-16T04:16:25.011Z,15.87
2023-02-16T04:18:51.640Z,21.53
2023-02-16T04:21:18.169Z,20.83
2023-02-16T04:23:44.732Z,15.07
2023-02-16T04:26:11.541Z,18.23
2023-02-16T04:28:38.137Z,16.97
2023-02-16T04:31:05.225Z,18.83
2023-02-16T04:33:32.028Z,19.30
2023-02-16T04:35:58.576Z,17.07
2023-02-16T04:38:26.160Z,17.23
2023-02-16T04:40:52.782Z,17.77
2023-02-16T04:43:19.364Z,15.10
2023-02-16T04:45:46.048Z,19.97
2023-02-16T04:48:12.744Z,15.23
2023-02-16T04:50:39.351Z,16.77
2023-02-16T04:53:06.112Z,18.63
2023-02-16T04:55:33.212Z,21.33
2023-02-16T04:57:59.811Z,19.53
2023-02-16T05:00:26.459Z,18.30
2023-02-16T05:02:53.148Z,19.17
2023-02-16T05:05:19.708Z,16.73
2023-02-16T05:07:46.385Z,19.13
2023-02-16T05:10:13.003Z,24.97
2023-02-16T05:12:58.274Z,23.83
2023-02-16T05:15:24.896Z,22.20
2023-02-16T05:17:51.447Z,22.07
2023-02-16T05:20:18.105Z,20.57
2023-02-16T05:22:46.314Z,24.10
2023-02-16T05:25:13.230Z,27.43
2023-02-16T05:27:39.816Z,22.03
2023-02-16T05:30:07.025Z,22.43
2023-02-16T05:32:33.741Z,16.70
2023-02-16T05:35:00.440Z,19.93
2023-02-16T05:37:27.110Z,16.33
2023-02-16T05:39:53.707Z,19.67
2023-02-16T05:42:20.371Z,14.43
2023-02-16T05:44:46.959Z,18.80
2023-02-16T05:47:13.665Z,18.37
2023-02-16T05:49:40.245Z,19.03
2023-02-16T05:52:06.850Z,19.13
2023-02-16T05:54:33.518Z,22.53
2023-02-16T05:57:00.123Z,17.83
2023-02-16T05:59:26.817Z,16.07
2023-02-16T06:01:54.030Z,20.40
2023-02-16T06:04:21.827Z,18.97
2023-02-16T06:06:48.908Z,17.53
2023-02-16T06:09:16.085Z,21.40
2023-02-16T06:11:43.422Z,20.30
2023-02-16T06:14:16.926Z,21.63
2023-02-16T06:16:45.942Z,24.03
2023-02-16T06:19:13.076Z,19.40
2023-02-16T06:21:40.729Z,19.40
2023-02-16T06:24:08.744Z,16.87
2023-02-16T06:26:35.787Z,19.53
2023-02-16T06:29:02.798Z,21.20
2023-02-16T06:31:29.491Z,18.77
2023-02-16T06:33:56.978Z,22.43
2023-02-16T06:36:24.549Z,20.33
2023-02-16T06:38:51.157Z,17.83
2023-02-16T06:41:31.417Z,23.93
2023-02-16T06:44:02.933Z,18.83
2023-02-16T06:46:29.803Z,18.83
2023-02-16T06:48:56.454Z,16.87
2023-02-16T06:51:23.390Z,19.87
2023-02-16T06:53:49.996Z,20.50
2023-02-16T06:56:16.667Z,23.83
2023-02-16T06:58:43.209Z,20.10
2023-02-16T07:01:09.849Z,20.20
2023-02-16T07:03:37.046Z,20.47
2023-02-16T07:06:03.977Z,24.23
2023-02-16T07:08:30.550Z,21.47
2023-02-16T07:10:57.148Z,27.63
2023-02-16T07:13:23.746Z,22.37
2023-02-16T07:15:50.449Z,19.60
2023-02-16T07:18:17.075Z,17.33
2023-02-16T07:20:43.668Z,24.17
2023-02-16T07:23:10.264Z,22.40
2023-02-16T07:25:37.314Z,15.87
2023-02-16T07:28:04.358Z,16.43
2023-02-16T07:30:31.040Z,18.17
2023-02-16T07:32:57.827Z,16.77
2023-02-16T07:35:24.440Z,16.80
2023-02-16T07:37:50.986Z,22.90
2023-02-16T07:40:18.176Z,19.47
2023-02-16T07:42:44.757Z,23.43
2023-02-16T07:45:11.333Z,21.00
2023-02-16T07:47:38.006Z,19.10
2023-02-16T07:50:05.402Z,18.27
2023-02-16T07:52:31.927Z,19.33
2023-02-16T07:54:59.256Z,26.83
2023-02-16T07:57:27.023Z,27.00
2023-02-16T07:59:54.166Z,24.00
2023-02-16T08:02:21.979Z,18.20
2023-02-16T08:04:49.586Z,20.60
2023-02-16T08:07:17.199Z,19.67
2023-02-16T08:09:43.768Z,21.20
2023-02-16T08:12:14.957Z,24.90
2023-02-16T08:14:41.821Z,23.40
2023-02-16T08:17:08.984Z,23.77
2023-02-16T08:19:37.192Z,31.43
2023-02-16T08:22:06.090Z,25.30
2023-02-16T08:24:34.082Z,31.93
2023-02-16T08:27:03.842Z,33.97
2023-02-16T08:29:31.578Z,35.17
2023-02-16T08:31:58.287Z,56.00
2023-02-16T08:34:26.416Z,38.70
2023-02-16T08:36:56.715Z,42.20
2023-02-16T08:39:32.909Z,31.55
2023-02-16T08:42:01.475Z,30.67
2023-02-16T08:44:29.607Z,44.70
2023-02-16T08:46:59.407Z,50.13
2023-02-16T08:49:26.174Z,58.17
2023-02-16T08:51:55.525Z,45.10
2023-02-16T08:54:27.013Z,46.40
2023-02-16T08:56:55.599Z,49.03
2023-02-16T08:59:23.858Z,54.42
2023-02-16T09:01:51.077Z,53.05
2023-02-16T09:04:19.866Z,52.90
2023-02-16T09:06:48.507Z,45.17
2023-02-16T09:09:16.179Z,44.13
2023-02-16T09:11:42.779Z,66.15
2023-02-16T09:14:09.604Z,57.35
2023-02-16T09:16:39.584Z,61.05
2023-02-16T09:19:07.190Z,62.03
2023-02-16T09:21:34.197Z,37.63
2023-02-16T09:24:02.486Z,73.88
2023-02-16T09:26:32.685Z,43.97
2023-02-16T09:29:00.496Z,36.53
2023-02-16T09:31:31.050Z,47.70
2023-02-16T09:34:00.563Z,40.58
2023-02-16T09:36:27.514Z,49.17
2023-02-16T09:38:55.001Z,42.90
2023-02-16T09:41:40.506Z,42.90
2023-02-16T09:44:19.255Z,43.35
2023-02-16T09:46:47.104Z,43.10
2023-02-16T09:49:34.911Z,39.85
2023-02-16T09:52:18.791Z,44.90
2023-02-16T09:54:54.944Z,50.67
2023-02-16T09:57:36.733Z,44.28
2023-02-16T10:00:30.904Z,37.40
2023-02-16T10:03:34.106Z,48.50
2023-02-16T10:06:06.914Z,37.78
2023-02-16T10:08:45.746Z,49.72
2023-02-16T10:11:46.878Z,35.05
2023-02-16T10:14:41.478Z,41.35
2023-02-16T10:17:19.503Z,31.90
2023-02-16T10:20:23.203Z,31.63
2023-02-16T10:23:10.272Z,30.65
2023-02-16T10:26:06.028Z,28.30
2023-02-16T10:28:46.410Z,29.38
2023-02-16T10:31:21.002Z,31.42
2023-02-16T10:33:53.632Z,32.10
2023-02-16T10:36:38.570Z,28.80
2023-02-16T10:39:33.414Z,28.98
2023-02-16T10:42:09.900Z,30.67
2023-02-16T10:44:45.951Z,31.52
2023-02-16T10:47:35.690Z,30.27
2023-02-16T10:50:02.935Z,40.50
2023-02-16T10:52:34.485Z,27.98
2023-02-16T10:55:02.153Z,32.17
2023-02-16T10:57:33.292Z,35.65
2023-02-16T11:02:52.511Z,23.67
2023-02-16T11:05:36.389Z,20.88
2023-02-16T11:08:03.933Z,24.90
2023-02-16T11:10:40.449Z,29.08
2023-02-16T11:13:08.132Z,28.65
2023-02-16T11:15:37.943Z,25.95
2023-02-16T11:18:22.957Z,21.80
2023-02-16T11:20:55.168Z,24.33
2023-02-16T11:23:31.764Z,19.88
2023-02-16T11:26:07.615Z,25.13
2023-02-16T11:28:48.337Z,21.88
2023-02-16T11:31:20.386Z,19.55
2023-02-16T11:34:03.308Z,26.05
2023-02-16T11:36:36.019Z,20.17
2023-02-16T11:39:22.789Z,24.60
2023-02-16T11:41:50.515Z,22.60
2023-02-16T11:44:46.583Z,21.10
2023-02-16T11:47:28.951Z,22.30
2023-02-16T11:50:19.626Z,41.47
2023-02-16T11:53:16.715Z,38.50
2023-02-16T11:55:48.656Z,26.52
2023-02-16T11:58:20.271Z,40.80
2023-02-16T12:01:29.113Z,22.73
2023-02-16T12:04:15.205Z,21.90
2023-02-16T12:07:08.947Z,21.73
2023-02-16T12:09:56.468Z,22.23
2023-02-16T12:12:29.153Z,22.88
2023-02-16T12:15:12.646Z,20.15
2023-02-16T12:17:48.160Z,24.15
2023-02-16T12:20:34.116Z,29.42
2023-02-16T12:23:32.024Z,99.90
2023-02-16T12:26:28.464Z,28.23
2023-02-16T12:29:08.936Z,25.23
2023-02-16T12:31:54.044Z,22.77
2023-02-16T12:34:37.453Z,22.83
2023-02-16T12:37:33.510Z,24.95
2023-02-16T12:40:21.813Z,21.95
2023-02-16T12:43:01.118Z,28.13
2023-02-16T12:45:36.648Z,25.13
2023-02-16T12:48:26.121Z,24.63
2023-02-16T12:50:54.905Z,25.33
2023-02-16T12:53:28.087Z,23.60
2023-02-16T12:56:05.051Z,21.08
2023-02-16T12:58:37.562Z,24.08
2023-02-16T13:01:14.653Z,21.40
2023-02-16T13:04:04.755Z,17.23
2023-02-16T13:06:42.191Z,16.52
2023-02-16T13:09:34.232Z,18.67
2023-02-16T13:12:38.599Z,21.27
2023-02-16T13:15:23.538Z,15.40
2023-02-16T13:17:57.201Z,17.55
2023-02-16T13:20:24.823Z,14.98
2023-02-16T13:23:16.206Z,17.08
2023-02-16T13:26:11.452Z,26.60
2023-02-16T13:28:59.924Z,20.98
2023-02-16T13:31:43.733Z,20.02
2023-02-16T13:34:32.139Z,18.27
2023-02-16T13:37:11.037Z,19.73
2023-02-16T13:39:58.851Z,16.95
2023-02-16T13:42:50.198Z,12.35
2023-02-16T13:45:41.153Z,12.95
2023-02-16T13:48:26.502Z,21.08
2023-02-16T13:50:59.605Z,18.27
2023-02-16T13:53:31.306Z,20.52
2023-02-16T13:56:24.787Z,14.50
2023-02-16T13:58:53.135Z,14.65
2023-02-16T14:01:32.394Z,14.60
2023-02-16T14:04:02.982Z,18.55
2023-02-16T14:06:32.466Z,18.48
2023-02-16T14:09:14.425Z,15.25
2023-02-16T14:11:53.241Z,16.70
2023-02-16T14:14:36.771Z,12.80
2023-02-16T14:17:21.908Z,15.52
2023-02-16T14:20:07.534Z,14.82
2023-02-16T14:22:43.245Z,11.52
2023-02-16T14:25:27.476Z,11.45
2023-02-16T14:27:59.563Z,11.25
2023-02-16T14:30:36.283Z,11.70
2023-02-16T14:33:17.920Z,11.10
2023-02-16T14:35:59.647Z,17.30
2023-02-16T14:38:33.222Z,16.33
2023-02-16T14:41:02.070Z,11.38
2023-02-16T14:43:41.643Z,12.38
2023-02-16T14:46:17.058Z,15.02
2023-02-16T14:48:57.368Z,14.85
2023-02-16T14:51:50.845Z,9.93
2023-02-16T14:54:54.318Z,15.10
2023-02-16T14:57:46.760Z,12.93
2023-02-16T15:00:19.742Z,14.15
2023-02-16T15:02:59.906Z,13.70
2023-02-16T15:05:30.874Z,11.43
2023-02-16T15:08:17.613Z,10.05
2023-02-16T15:10:49.107Z,9.10
2023-02-16T15:13:25.957Z,16.33
2023-02-16T15:15:56.687Z,12.75
2023-02-16T15:18:27.938Z,15.15
2023-02-16T15:20:58.447Z,11.25
2023-02-16T15:23:28.462Z,14.55
2023-02-16T15:26:05.373Z,13.73
2023-02-16T15:28:35.943Z,13.88
2023-02-16T15:31:06.124Z,15.20
2023-02-16T15:33:39.590Z,15.30
2023-02-16T15:36:10.701Z,18.85
2023-02-16T15:41:08.467Z,22.58
2023-02-16T15:43:40.015Z,17.40
2023-02-16T15:46:14.689Z,14.23
2023-02-16T15:48:41.451Z,22.48
2023-02-16T15:51:16.295Z,16.02
2023-02-16T15:53:50.374Z,18.73
2023-02-16T15:56:27.967Z,20.40
2023-02-16T15:58:57.635Z,20.00
2023-02-16T16:01:32.889Z,16.50
2023-02-16T16:04:06.233Z,20.30
2023-02-16T16:06:36.411Z,15.57
2023-02-16T16:09:08.514Z,19.33
2023-02-16T16:11:36.879Z,17.58
2023-02-16T16:14:06.171Z,18.27
2023-02-16T16:16:33.865Z,21.67
2023-02-16T16:19:17.885Z,20.73
2023-02-16T16:21:55.606Z,29.90
2023-02-16T16:24:39.227Z,21.73
2023-02-16T16:27:12.614Z,19.80
2023-02-16T16:29:39.138Z,14.98
2023-02-16T16:32:18.243Z,20.77
2023-02-16T16:34:44.938Z,13.52
2023-02-16T16:37:27.358Z,20.45
2023-02-16T16:40:02.201Z,21.77
2023-02-16T16:42:29.083Z,17.42
2023-02-16T16:45:23.748Z,13.77
2023-02-16T16:47:52.086Z,15.15
2023-02-16T16:50:33.444Z,13.98
2023-02-16T16:53:00.873Z,16.33
2023-02-16T16:55:34.993Z,26.05
2023-02-16T16:58:05.910Z,22.17
2023-02-16T17:00:35.942Z,21.63
2023-02-16T17:03:05.185Z,21.47
2023-02-16T17:05:32.916Z,21.33
2023-02-16T17:07:59.566Z,17.35
2023-02-16T17:10:26.309Z,14.43
2023-02-16T17:12:58.075Z,18.98
2023-02-16T17:15:38.075Z,18.58
2023-02-16T17:18:06.371Z,20.70
2023-02-16T17:20:33.287Z,22.38
2023-02-16T17:23:04.573Z,17.98
2023-02-16T17:25:33.251Z,28.48
2023-02-16T17:28:00.132Z,21.48
2023-02-16T17:30:26.889Z,28.50
2023-02-16T17:32:53.543Z,39.42
2023-02-16T17:35:20.330Z,23.40
2023-02-16T17:37:46.940Z,24.00
2023-02-16T17:40:17.382Z,24.55
2023-02-16T17:42:43.953Z,27.48
2023-02-16T17:45:10.608Z,27.85
2023-02-16T17:47:37.472Z,28.92
2023-02-16T17:50:05.595Z,60.03
2023-02-16T17:52:32.516Z,36.85
2023-02-16T17:54:59.184Z,22.48
2023-02-16T17:57:25.778Z,22.00
2023-02-16T17:59:52.632Z,21.50
2023-02-16T18:02:19.244Z,16.38
2023-02-16T18:04:45.790Z,17.55
2023-02-16T18:07:14.115Z,24.25
2023-02-16T18:09:40.964Z,16.95
2023-02-16T18:12:07.807Z,19.08
2023-02-16T18:14:36.021Z,25.05
2023-02-16T18:17:04.191Z,23.17
2023-02-16T18:19:31.968Z,19.98
2023-02-16T18:21:59.224Z,19.17
2023-02-16T18:24:26.221Z,21.55
2023-02-16T18:26:54.737Z,18.50
2023-02-16T18:29:21.332Z,24.48
2023-02-16T18:31:48.025Z,19.02
2023-02-16T18:34:14.801Z,25.52
2023-02-16T18:36:41.942Z,26.45
2023-02-16T18:39:09.299Z,59.63
2023-02-16T18:41:36.594Z,40.05
2023-02-16T18:44:03.293Z,31.50
2023-02-16T18:46:29.899Z,24.13
2023-02-16T18:48:59.148Z,25.02
2023-02-16T18:51:28.981Z,24.48
2023-02-16T18:53:57.067Z,30.10
2023-02-16T18:56:23.691Z,24.10
2023-02-16T18:58:50.500Z,24.10
2023-02-16T19:01:27.524Z,24.73
2023-02-16T19:03:54.311Z,21.83
2023-02-16T19:06:21.004Z,25.42
2023-02-16T19:08:47.997Z,30.17
2023-02-16T19:11:14.733Z,28.10
2023-02-16T19:13:41.372Z,22.33
2023-02-16T19:16:08.615Z,25.33
2023-02-16T19:18:35.460Z,25.33
2023-02-16T19:21:07.164Z,24.77
2023-02-16T19:23:34.039Z,28.95
2023-02-16T19:26:08.967Z,22.05
2023-02-16T19:28:35.570Z,23.27
2023-02-16T19:31:04.549Z,23.30
2023-02-16T19:33:31.794Z,19.33
2023-02-16T19:36:04.539Z,18.17
2023-02-16T19:38:31.781Z,23.15
2023-02-16T19:40:59.286Z,27.05
2023-02-16T19:43:26.321Z,19.90
2023-02-16T19:45:52.909Z,18.90
2023-02-16T19:48:19.493Z,21.35
2023-02-16T19:50:46.553Z,21.58
2023-02-16T19:53:13.094Z,26.17
2023-02-16T19:55:41.552Z,26.27
2023-02-16T19:58:08.681Z,26.15
2023-02-16T20:00:36.893Z,25.60
2023-02-16T20:03:04.017Z,24.90
2023-02-16T20:05:30.632Z,25.90
2023-02-16T20:07:57.387Z,25.35
2023-02-16T20:10:23.946Z,19.85
2023-02-16T20:12:50.559Z,24.00
2023-02-16T20:15:17.984Z,22.90
2023-02-16T20:17:44.510Z,23.88
2023-02-16T20:20:12.471Z,21.70
2023-02-16T20:22:39.051Z,28.45
2023-02-16T20:25:05.964Z,24.17
2023-02-16T20:27:32.586Z,21.90
2023-02-16T20:29:59.626Z,28.90
2023-02-16T20:32:28.256Z,23.00
2023-02-16T20:34:54.900Z,26.15
2023-02-16T20:37:21.830Z,30.63
2023-02-16T20:39:48.516Z,23.95
2023-02-16T20:42:15.183Z,25.52
2023-02-16T20:44:41.801Z,21.13
2023-02-16T20:47:10.193Z,19.60
2023-02-16T20:49:36.936Z,21.95
2023-02-16T20:52:03.668Z,20.20
2023-02-16T20:54:31.184Z,22.30
2023-02-16T20:56:57.888Z,24.08
2023-02-16T20:59:24.519Z,23.67
2023-02-16T21:01:52.711Z,20.48
2023-02-16T21:04:19.879Z,23.33
2023-02-16T21:06:46.761Z,19.35
2023-02-16T21:09:14.334Z,21.77
2023-02-16T21:11:41.543Z,22.27
2023-02-16T21:14:10.962Z,23.17
2023-02-16T21:16:38.073Z,22.17
2023-02-16T21:19:11.758Z,23.58
2023-02-16T21:21:41.551Z,22.17
2023-02-16T21:24:08.678Z,23.98
2023-02-16T21:26:35.192Z,19.92
2023-02-16T21:29:01.795Z,19.98
2023-02-16T21:31:28.468Z,18.90
2023-02-16T21:33:55.176Z,19.48
2023-02-16T21:36:24.261Z,28.00
2023-02-16T21:38:51.024Z,18.67
2023-02-16T21:41:29.085Z,20.33
2023-02-16T21:44:00.907Z,20.55
2023-02-16T21:46:33.269Z,25.58
2023-02-16T21:49:00.111Z,23.15
2023-02-16T21:51:46.426Z,21.20
2023-02-16T21:54:16.768Z,27.50
2023-02-16T21:56:51.052Z,20.92
2023-02-16T21:59:19.812Z,19.95
2023-02-16T22:01:50.984Z,18.20
2023-02-16T22:04:20.114Z,16.77
2023-02-16T22:06:49.499Z,19.60
2023-02-16T22:09:20.069Z,18.95
2023-02-16T22:11:46.968Z,26.67
2023-02-16T22:14:13.548Z,20.75
2023-02-16T22:16:40.368Z,15.88
2023-02-16T22:19:10.676Z,22.40
2023-02-16T22:21:39.607Z,17.02
2023-02-16T22:24:07.744Z,21.38
2023-02-16T22:26:35.739Z,20.05
2023-02-16T22:29:06.862Z,21.00
2023-02-16T22:34:03.273Z,17.98
2023-02-16T22:36:30.444Z,20.20
2023-02-16T22:38:57.437Z,18.70
2023-02-16T22:41:24.775Z,22.00
2023-02-16T22:43:56.243Z,23.88
2023-02-16T22:46:24.447Z,23.65
2023-02-16T22:48:52.065Z,27.52
2023-02-16T22:51:20.775Z,22.85
2023-02-16T22:53:48.319Z,18.83
2023-02-16T22:56:17.610Z,22.95
2023-02-16T22:58:44.792Z,22.65
2023-02-16T23:01:18.063Z,24.02
2023-02-16T23:03:49.828Z,21.15
2023-02-16T23:06:22.849Z,17.10
2023-02-16T23:09:12.620Z,21.15
2023-02-16T23:11:39.193Z,19.35
2023-02-16T23:14:06.569Z,19.55
2023-02-16T23:16:33.225Z,18.35
2023-02-16T23:19:00.146Z,21.20
2023-02-16T23:21:31.983Z,15.60
2023-02-16T23:23:59.664Z,16.02
2023-02-16T23:26:28.871Z,14.82
2023-02-16T23:28:57.894Z,22.10
2023-02-16T23:31:24.621Z,16.35
2023-02-16T23:33:51.745Z,14.23
2023-02-16T23:36:18.308Z,16.85
2023-02-16T23:38:44.859Z,12.23
2023-02-16T23:41:13.565Z,15.15
2023-02-16T23:43:40.813Z,12.93
2023-02-16T23:46:08.018Z,16.38
2023-02-16T23:48:35.111Z,24.45
2023-02-16T23:51:01.855Z,14.27
2023-02-16T23:53:28.899Z,12.45
2023-02-16T23:55:58.558Z,11.88
2023-02-16T23:58:29.654Z,14.52
